Time;durP1;ratioP1;P1;durP2;ratioP2;P2;SDS_P1;SDS_P2;PMS_P1;PMS_P2;Temp;Humidity;BMP_temperature;BMP_pressure;BME280_temperature;BME280_humidity;BME280_pressure;Samples;Min_cycle;Max_cycle;Signal;HPM_P1;HPM_P2
2024/01/30 00:01:58;;;;;;;20.55;12.68;;;22.90;99.90;;;;;;4935966;29;20019;-49
2024/01/30 00:04:24;;;;;;;18.38;12.77;;;22.90;99.90;;;;;;4935546;29;20539;-49
2024/01/30 00:06:52;;;;;;;22.15;13.15;;;22.90;99.90;;;;;;4935310;29;20496;-48
2024/01/30 00:09:19;;;;;;;21.77;13.32;;;22.90;99.90;;;;;;4935500;29;20024;-49
2024/01/30 00:11:45;;;;;;;20.15;13.35;;;22.90;99.90;;;;;;4934893;29;20032;-49
2024/01/30 00:14:11;;;;;;;21.58;13.63;;;22.90;99.90;;;;;;4935337;29;20108;-49
2024/01/30 00:16:37;;;;;;;18.00;12.93;;;22.90;99.90;;;;;;4935301;29;20111;-48
2024/01/30 00:19:03;;;;;;;19.55;13.35;;;22.90;99.90;;;;;;4934932;29;20055;-48
2024/01/30 00:21:29;;;;;;;21.25;13.73;;;22.90;99.90;;;;;;4935230;29;20027;-47
2024/01/30 00:23:55;;;;;;;22.30;13.98;;;22.90;99.90;;;;;;4935363;29;20031;-47
2024/01/30 00:26:21;;;;;;;20.83;12.55;;;22.90;99.90;;;;;;4934744;29;20048;-48
2024/01/30 00:28:46;;;;;;;19.75;12.60;;;22.90;99.90;;;;;;4935113;29;20028;-48
2024/01/30 00:31:12;;;;;;;20.42;13.05;;;22.90;99.90;;;;;;4933949;29;20027;-48
2024/01/30 00:33:39;;;;;;;20.25;12.88;;;22.90;99.90;;;;;;4934879;29;21152;-46
2024/01/30 00:36:06;;;;;;;19.25;13.15;;;22.80;99.90;;;;;;4934831;29;20042;-48
2024/01/30 00:38:32;;;;;;;20.83;12.95;;;22.90;99.90;;;;;;4934877;29;20027;-47
2024/01/30 00:40:58;;;;;;;18.90;13.55;;;22.90;99.90;;;;;;4934612;29;20079;-49
2024/01/30 00:43:25;;;;;;;20.88;13.25;;;22.90;99.90;;;;;;4935291;29;20380;-50
2024/01/30 00:45:52;;;;;;;21.30;14.50;;;22.80;99.90;;;;;;4934911;29;20055;-48
2024/01/30 00:48:18;;;;;;;19.92;12.98;;;22.90;99.90;;;;;;4934450;29;20020;-48
2024/01/30 00:50:44;;;;;;;21.27;14.05;;;22.80;99.90;;;;;;4934951;29;20114;-47
2024/01/30 00:53:10;;;;;;;20.00;13.77;;;22.90;99.90;;;;;;4917573;29;20481;-47
2024/01/30 00:55:36;;;;;;;20.58;13.65;;;22.80;99.90;;;;;;4934445;29;20047;-47
2024/01/30 00:58:02;;;;;;;21.30;13.88;;;22.80;99.90;;;;;;4916321;29;20489;-47
2024/01/30 01:00:29;;;;;;;22.13;13.75;;;22.90;99.90;;;;;;4931932;23;21167;-68
2024/01/30 01:02:58;;;;;;;17.77;12.68;;;22.80;99.90;;;;;;4953085;29;20035;-70
2024/01/30 01:05:23;;;;;;;22.45;13.00;;;22.80;99.90;;;;;;4952917;29;20027;-63
2024/01/30 01:07:49;;;;;;;20.67;13.27;;;22.80;99.90;;;;;;4953773;29;20033;-64
2024/01/30 01:10:19;;;;;;;23.42;13.07;;;22.80;99.90;;;;;;4953185;29;20035;-70
2024/01/30 01:12:45;;;;;;;23.23;14.02;;;22.80;99.90;;;;;;4952335;29;20485;-67
2024/01/30 01:15:11;;;;;;;27.08;13.43;;;22.80;99.90;;;;;;4953630;29;20046;-68
2024/01/30 01:17:40;;;;;;;21.77;13.68;;;22.80;99.90;;;;;;4952954;29;20090;-65
2024/01/30 01:20:07;;;;;;;18.73;13.13;;;22.80;99.90;;;;;;4942413;29;20031;-66
2024/01/30 01:22:33;;;;;;;21.23;13.97;;;22.80;99.90;;;;;;4933828;29;20027;-68
2024/01/30 01:25:00;;;;;;;19.35;13.50;;;22.80;99.90;;;;;;4951081;29;20023;-67
2024/01/30 01:27:26;;;;;;;19.05;13.48;;;22.80;99.90;;;;;;4953610;29;20082;-67
2024/01/30 01:29:52;;;;;;;19.92;13.43;;;22.80;99.90;;;;;;4953175;29;20027;-63
2024/01/30 01:32:18;;;;;;;21.23;13.23;;;22.80;99.90;;;;;;4952434;29;20042;-66
2024/01/30 01:34:44;;;;;;;21.20;13.02;;;22.80;99.90;;;;;;4952034;29;20039;-67
2024/01/30 01:37:10;;;;;;;19.27;12.30;;;22.80;99.90;;;;;;4952610;29;20115;-63
2024/01/30 01:39:36;;;;;;;21.63;13.38;;;22.80;99.90;;;;;;4953588;29;20396;-62
2024/01/30 01:42:02;;;;;;;20.70;14.02;;;22.80;99.90;;;;;;4952200;28;20024;-64
2024/01/30 01:44:28;;;;;;;22.92;13.93;;;22.80;99.90;;;;;;4956811;29;20023;-64
2024/01/30 01:46:55;;;;;;;18.77;13.10;;;22.80;99.90;;;;;;4957056;29;20480;-65
2024/01/30 01:49:23;;;;;;;23.97;14.30;;;22.80;99.90;;;;;;4956696;29;20023;-68
2024/01/30 01:51:51;;;;;;;21.55;13.93;;;22.80;99.90;;;;;;4939688;29;20023;-61
2024/01/30 01:54:18;;;;;;;21.35;13.38;;;22.80;99.90;;;;;;4956703;29;20415;-64
2024/01/30 01:56:44;;;;;;;19.75;13.38;;;22.80;99.90;;;;;;4935851;29;20384;-64
2024/01/30 01:59:10;;;;;;;20.58;13.23;;;22.80;99.90;;;;;;4932481;29;20031;-67
2024/01/30 02:01:40;;;;;;;24.95;14.60;;;22.80;99.90;;;;;;4959841;23;20412;-44
2024/01/30 02:04:07;;;;;;;19.33;13.00;;;22.80;99.90;;;;;;4935903;29;20111;-43
2024/01/30 02:06:35;;;;;;;19.50;13.77;;;22.80;99.90;;;;;;4944020;29;20024;-44
2024/01/30 02:09:01;;;;;;;18.35;13.93;;;22.80;99.90;;;;;;4956433;29;20067;-44
2024/01/30 02:11:28;;;;;;;22.17;13.40;;;22.80;99.90;;;;;;4949626;29;20087;-45
2024/01/30 02:13:54;;;;;;;21.52;13.25;;;22.80;99.90;;;;;;4950336;29;20030;-45
2024/01/30 02:16:19;;;;;;;21.52;13.18;;;22.80;99.90;;;;;;4949771;29;20039;-45
2024/01/30 02:18:47;;;;;;;21.00;13.05;;;22.80;99.90;;;;;;4946714;29;20027;-43
2024/01/30 02:21:16;;;;;;;23.13;13.10;;;22.80;99.90;;;;;;4938908;29;20023;-44
2024/01/30 02:23:44;;;;;;;21.17;12.82;;;22.80;99.90;;;;;;4946418;29;20362;-45
2024/01/30 02:26:11;;;;;;;19.92;13.77;;;22.70;99.90;;;;;;4949694;29;20116;-45
2024/01/30 02:28:38;;;;;;;20.23;13.55;;;22.80;99.90;;;;;;4946800;29;20083;-45
2024/01/30 02:31:04;;;;;;;20.60;13.40;;;22.80;99.90;;;;;;4951784;29;20031;-45
2024/01/30 02:33:30;;;;;;;22.33;13.32;;;22.80;99.90;;;;;;4954573;28;20476;-44
2024/01/30 02:35:56;;;;;;;22.08;13.38;;;22.80;99.90;;;;;;4943239;29;20039;-45
2024/01/30 02:38:23;;;;;;;22.10;14.15;;;22.80;99.90;;;;;;4946535;29;20028;-44
2024/01/30 02:40:49;;;;;;;19.58;13.98;;;22.80;99.90;;;;;;4952564;29;20031;-45
2024/01/30 02:43:15;;;;;;;23.05;14.00;;;22.70;99.90;;;;;;4946407;29;20027;-46
2024/01/30 02:45:41;;;;;;;19.73;14.10;;;22.70;99.90;;;;;;4953046;29;20031;-45
2024/01/30 02:48:07;;;;;;;21.35;13.57;;;22.70;99.90;;;;;;4950232;29;20038;-46
2024/01/30 02:50:33;;;;;;;23.02;13.60;;;22.70;99.90;;;;;;4955105;29;20031;-46
2024/01/30 02:52:58;;;;;;;25.88;14.52;;;22.70;99.90;;;;;;4955579;28;20034;-45
2024/01/30 02:55:24;;;;;;;20.70;13.27;;;22.70;99.90;;;;;;4954251;29;20503;-45
2024/01/30 02:57:50;;;;;;;19.13;13.13;;;22.70;99.90;;;;;;4934247;29;20050;-46
2024/01/30 03:00:16;;;;;;;23.00;14.10;;;22.70;99.90;;;;;;4956985;23;20441;-63
2024/01/30 03:02:42;;;;;;;22.10;13.23;;;22.70;99.90;;;;;;4928592;29;20055;-68
2024/01/30 03:05:08;;;;;;;22.55;14.27;;;22.70;99.90;;;;;;4917628;29;20036;-67
2024/01/30 03:07:34;;;;;;;19.38;12.95;;;22.70;99.90;;;;;;4916700;29;20099;-67
2024/01/30 03:10:00;;;;;;;19.42;13.32;;;22.70;99.90;;;;;;4917602;29;20449;-65
2024/01/30 03:12:26;;;;;;;20.67;13.98;;;22.70;99.90;;;;;;4917924;29;20028;-66
2024/01/30 03:14:53;;;;;;;22.55;13.90;;;22.70;99.90;;;;;;4917695;29;20048;-65
2024/01/30 03:17:19;;;;;;;23.90;13.45;;;22.70;99.90;;;;;;4916158;29;20071;-69
2024/01/30 03:19:45;;;;;;;21.08;12.93;;;22.60;99.90;;;;;;4924004;29;20031;-69
2024/01/30 03:22:11;;;;;;;19.25;12.32;;;22.60;99.90;;;;;;4925501;29;20024;-67
2024/01/30 03:24:37;;;;;;;24.83;13.63;;;22.60;99.90;;;;;;4926835;29;20038;-68
2024/01/30 03:27:03;;;;;;;19.58;13.43;;;22.60;99.90;;;;;;4926634;29;20075;-69
2024/01/30 03:29:28;;;;;;;22.98;13.43;;;22.60;99.90;;;;;;4925514;29;20103;-62
2024/01/30 03:31:54;;;;;;;22.48;13.70;;;22.60;99.90;;;;;;4926899;29;20134;-65
2024/01/30 03:34:20;;;;;;;18.83;12.73;;;22.60;99.90;;;;;;4924669;29;20121;-65
2024/01/30 03:36:46;;;;;;;24.40;13.55;;;22.60;99.90;;;;;;4917337;29;20036;-67
2024/01/30 03:39:11;;;;;;;22.83;13.77;;;22.60;99.90;;;;;;4917098;29;20031;-68
2024/01/30 03:41:37;;;;;;;21.80;12.95;;;22.60;99.90;;;;;;4916902;29;20107;-66
2024/01/30 03:44:03;;;;;;;23.25;14.25;;;22.60;99.90;;;;;;4900229;29;20029;-67
2024/01/30 03:46:29;;;;;;;18.42;12.27;;;22.60;99.90;;;;;;4915532;29;20024;-65
2024/01/30 03:48:55;;;;;;;21.60;13.20;;;22.60;99.90;;;;;;4899878;29;20039;-68
2024/01/30 03:51:21;;;;;;;21.67;12.25;;;22.50;99.90;;;;;;4916890;29;20028;-68
2024/01/30 03:53:46;;;;;;;21.30;13.80;;;22.50;99.90;;;;;;4917108;29;20444;-68
2024/01/30 03:56:13;;;;;;;17.67;11.57;;;22.50;99.90;;;;;;4916843;29;20107;-68
2024/01/30 03:58:39;;;;;;;19.73;12.52;;;22.50;99.90;;;;;;4900371;29;20024;-67
2024/01/30 04:01:05;;;;;;;23.05;13.00;;;22.50;99.90;;;;;;4917143;29;20600;-67
2024/01/30 04:03:31;;;;;;;21.35;12.65;;;22.50;99.90;;;;;;4916657;29;20107;-67
2024/01/30 04:05:57;;;;;;;19.98;12.55;;;22.50;99.90;;;;;;4916385;29;20115;-67
2024/01/30 04:08:23;;;;;;;22.98;13.52;;;22.50;99.90;;;;;;4916560;29;20484;-67
2024/01/30 04:10:49;;;;;;;21.30;12.95;;;22.50;99.90;;;;;;4916612;29;20044;-67
2024/01/30 04:13:14;;;;;;;20.25;12.52;;;22.40;99.90;;;;;;4916601;29;20055;-64
2024/01/30 04:15:40;;;;;;;18.55;11.77;;;22.40;99.90;;;;;;4916311;29;20082;-66
2024/01/30 04:18:06;;;;;;;21.23;12.70;;;22.40;99.90;;;;;;4916372;29;20024;-67
2024/01/30 04:20:32;;;;;;;20.42;12.80;;;22.40;99.90;;;;;;4916489;29;20425;-67
2024/01/30 04:22:58;;;;;;;21.95;12.60;;;22.40;99.90;;;;;;4916431;29;20087;-68
2024/01/30 04:25:23;;;;;;;22.67;13.07;;;22.40;99.90;;;;;;4916359;29;20484;-67
2024/01/30 04:27:49;;;;;;;23.10;13.82;;;22.40;99.90;;;;;;4899309;29;20072;-67
2024/01/30 04:30:15;;;;;;;20.52;12.77;;;22.40;99.90;;;;;;4916342;29;20047;-67
2024/01/30 04:32:41;;;;;;;21.33;12.35;;;22.40;99.90;;;;;;4916289;29;20100;-68
2024/01/30 04:35:07;;;;;;;22.25;13.02;;;22.40;99.90;;;;;;4916287;29;20069;-66
2024/01/30 04:37:33;;;;;;;23.50;13.95;;;22.30;99.90;;;;;;4916281;29;20075;-68
2024/01/30 04:39:59;;;;;;;20.48;12.80;;;22.30;99.90;;;;;;4916214;29;20048;-69
2024/01/30 04:42:24;;;;;;;20.85;13.32;;;22.30;99.90;;;;;;4916121;29;20028;-65
2024/01/30 04:44:51;;;;;;;22.70;13.55;;;22.30;99.90;;;;;;4916014;29;20036;-68
2024/01/30 04:47:16;;;;;;;22.65;13.65;;;22.40;99.90;;;;;;4916141;29;20036;-67
2024/01/30 04:49:43;;;;;;;22.38;13.20;;;22.30;99.90;;;;;;4915914;29;20076;-67
2024/01/30 04:52:09;;;;;;;24.27;13.07;;;22.30;99.90;;;;;;4916008;29;20435;-67
2024/01/30 04:54:35;;;;;;;17.48;11.80;;;22.40;99.90;;;;;;4915912;29;20052;-66
2024/01/30 04:57:01;;;;;;;20.77;12.88;;;22.40;99.90;;;;;;4915972;29;20025;-66
2024/01/30 04:59:27;;;;;;;18.88;12.45;;;22.30;99.90;;;;;;4915957;29;20055;-68
2024/01/30 05:01:53;;;;;;;20.98;11.95;;;22.30;99.90;;;;;;4915703;29;20079;-68
2024/01/30 05:04:19;;;;;;;21.00;13.40;;;22.30;99.90;;;;;;4916062;29;20024;-68
2024/01/30 05:06:45;;;;;;;21.80;13.75;;;22.30;99.90;;;;;;4915773;29;20032;-68
2024/01/30 05:09:12;;;;;;;17.73;11.90;;;22.30;99.90;;;;;;4915783;29;20348;-68
2024/01/30 05:11:41;;;;;;;18.50;12.38;;;22.30;99.90;;;;;;4915914;29;20020;-68
2024/01/30 05:14:08;;;;;;;18.95;12.35;;;22.30;99.90;;;;;;4915859;29;20059;-69
2024/01/30 05:16:34;;;;;;;17.00;11.38;;;22.30;99.90;;;;;;4915729;29;20087;-68
2024/01/30 05:19:00;;;;;;;19.85;12.13;;;22.30;99.90;;;;;;4919300;29;20032;-68
2024/01/30 05:21:26;;;;;;;18.45;12.02;;;22.30;99.90;;;;;;4919492;29;20533;-68
2024/01/30 05:23:52;;;;;;;19.80;11.75;;;22.30;99.90;;;;;;4919598;29;20115;-68
2024/01/30 05:26:18;;;;;;;22.55;12.02;;;22.30;99.90;;;;;;4919787;29;20049;-67
2024/01/30 05:28:48;;;;;;;20.55;12.38;;;22.30;99.90;;;;;;4919383;29;20068;-67
2024/01/30 05:31:14;;;;;;;19.00;12.18;;;22.20;99.90;;;;;;4919235;29;20040;-67
2024/01/30 05:33:40;;;;;;;20.38;11.55;;;22.20;99.90;;;;;;4919384;29;20028;-67
2024/01/30 05:36:06;;;;;;;19.35;11.63;;;22.20;99.90;;;;;;4919263;29;20037;-67
2024/01/30 05:38:32;;;;;;;21.83;12.02;;;22.20;99.90;;;;;;4919327;29;20084;-68
2024/01/30 05:40:58;;;;;;;19.63;11.38;;;22.20;99.90;;;;;;4902229;29;20028;-67
2024/01/30 05:43:24;;;;;;;19.65;12.32;;;22.20;99.90;;;;;;4918104;29;20024;-67
2024/01/30 05:45:50;;;;;;;17.70;11.10;;;22.20;99.90;;;;;;4918926;29;20087;-68
2024/01/30 05:48:16;;;;;;;22.40;11.82;;;22.20;99.90;;;;;;4918896;29;20027;-68
2024/01/30 05:50:42;;;;;;;19.15;11.65;;;22.20;99.90;;;;;;4918578;29;20024;-68
2024/01/30 05:53:08;;;;;;;18.48;11.10;;;22.30;99.90;;;;;;4917896;29;20107;-66
2024/01/30 05:55:34;;;;;;;18.65;11.38;;;22.20;99.90;;;;;;4917632;29;20314;-66
2024/01/30 05:57:59;;;;;;;20.67;13.15;;;22.20;99.90;;;;;;4918052;29;20024;-66
2024/01/30 06:00:25;;;;;;;17.00;10.27;;;22.20;99.90;;;;;;4917571;29;20068;-63
2024/01/30 06:02:51;;;;;;;18.38;11.55;;;22.20;99.90;;;;;;4918194;29;20036;-64
2024/01/30 06:05:17;;;;;;;17.48;10.57;;;22.20;99.90;;;;;;4918373;29;20028;-65
2024/01/30 06:07:42;;;;;;;17.95;10.95;;;22.20;99.90;;;;;;4918764;29;20385;-64
2024/01/30 06:10:08;;;;;;;20.48;10.82;;;22.20;99.90;;;;;;4917995;29;20099;-64
2024/01/30 06:12:35;;;;;;;17.95;10.95;;;22.20;99.90;;;;;;4918345;29;20035;-64
2024/01/30 06:15:01;;;;;;;13.93;9.93;;;22.20;99.90;;;;;;4918686;29;20040;-66
2024/01/30 06:17:28;;;;;;;17.80;10.45;;;22.20;99.90;;;;;;4918709;29;20385;-64
2024/01/30 06:19:53;;;;;;;16.80;10.88;;;22.20;99.90;;;;;;4917589;29;20044;-66
2024/01/30 06:22:19;;;;;;;18.17;10.38;;;22.20;99.90;;;;;;4918564;29;20505;-68
2024/01/30 06:24:47;;;;;;;16.92;9.95;;;22.20;99.90;;;;;;4917074;29;20036;-68
2024/01/30 06:27:13;;;;;;;17.38;10.23;;;22.20;99.90;;;;;;4918300;29;20028;-68
2024/01/30 06:29:40;;;;;;;14.82;9.00;;;22.20;99.90;;;;;;4918090;29;20020;-68
2024/01/30 06:32:06;;;;;;;14.95;9.15;;;22.20;99.90;;;;;;4916978;29;20111;-67
2024/01/30 06:34:32;;;;;;;12.93;8.90;;;22.20;99.90;;;;;;4918104;29;20039;-68
2024/01/30 06:36:58;;;;;;;15.70;10.02;;;22.10;99.90;;;;;;4918204;29;20025;-67
2024/01/30 06:39:23;;;;;;;14.93;9.57;;;22.10;99.90;;;;;;4901362;29;20062;-67
2024/01/30 06:41:49;;;;;;;16.27;9.55;;;22.10;99.90;;;;;;4916696;29;20036;-67
2024/01/30 06:44:15;;;;;;;14.93;9.70;;;22.20;99.90;;;;;;4918142;29;20354;-67
2024/01/30 06:46:41;;;;;;;15.88;9.55;;;22.10;99.90;;;;;;4901074;29;20021;-68
2024/01/30 06:49:07;;;;;;;17.40;9.18;;;22.10;99.90;;;;;;4917976;29;20024;-68
2024/01/30 06:51:32;;;;;;;14.65;9.55;;;22.10;99.90;;;;;;4916553;29;20024;-68
2024/01/30 06:53:58;;;;;;;18.27;9.25;;;22.10;99.90;;;;;;4917843;29;20039;-68
2024/01/30 06:56:25;;;;;;;15.10;8.98;;;22.10;99.90;;;;;;4918085;29;20075;-68
2024/01/30 06:58:51;;;;;;;16.70;9.43;;;22.10;99.90;;;;;;4917774;29;20036;-66
2024/01/30 07:01:17;;;;;;;17.02;9.50;;;22.10;99.90;;;;;;4916445;29;20063;-67
2024/01/30 07:03:43;;;;;;;15.60;9.07;;;22.10;99.90;;;;;;4917731;29;20576;-64
2024/01/30 07:06:10;;;;;;;15.35;8.43;;;22.10;99.90;;;;;;4916399;29;20091;-66
2024/01/30 07:08:38;;;;;;;15.95;8.38;;;22.10;99.90;;;;;;4917489;29;20083;-66
2024/01/30 07:11:05;;;;;;;15.55;8.93;;;22.10;99.90;;;;;;4917483;29;20032;-66
2024/01/30 07:13:31;;;;;;;16.15;9.05;;;22.10;99.90;;;;;;4917476;29;20040;-66
2024/01/30 07:15:57;;;;;;;13.18;8.68;;;22.10;99.90;;;;;;4917693;29;20164;-65
2024/01/30 07:18:23;;;;;;;13.95;8.95;;;22.10;99.90;;;;;;4917636;29;20021;-66
2024/01/30 07:20:49;;;;;;;12.57;8.60;;;22.10;99.90;;;;;;4917565;29;20029;-68
2024/01/30 07:23:17;;;;;;;17.85;8.35;;;22.10;99.90;;;;;;4917180;29;20056;-68
2024/01/30 07:25:48;;;;;;;;;;;22.10;99.90;;;;;;4917726;29;20020;-65
2024/01/30 07:28:16;;;;;;;12.93;7.88;;;22.10;99.90;;;;;;4900188;29;19907;-63
2024/01/30 07:30:43;;;;;;;15.00;8.63;;;22.10;99.90;;;;;;4917223;29;20028;-65
2024/01/30 07:33:09;;;;;;;12.70;8.02;;;22.10;99.90;;;;;;4900529;29;20096;-64
2024/01/30 07:35:35;;;;;;;11.63;7.15;;;22.00;99.90;;;;;;4916880;29;20452;-64
2024/01/30 07:38:01;;;;;;;17.30;8.85;;;22.10;99.90;;;;;;4917330;29;20028;-62
2024/01/30 07:40:27;;;;;;;12.70;7.20;;;22.00;99.90;;;;;;4916601;29;20133;-62
2024/01/30 07:42:54;;;;;;;15.38;7.80;;;22.00;99.90;;;;;;4916819;29;20045;-67
2024/01/30 07:45:24;;;;;;;16.75;8.35;;;22.00;99.90;;;;;;4916851;29;20036;-66
2024/01/30 07:47:50;;;;;;;13.95;8.18;;;22.00;99.90;;;;;;4899805;29;20092;-67
2024/01/30 07:50:16;;;;;;;15.35;9.20;;;22.00;99.90;;;;;;4916710;29;20032;-64
2024/01/30 07:52:43;;;;;;;13.25;7.63;;;22.00;99.90;;;;;;4915561;29;20103;-64
2024/01/30 07:55:09;;;;;;;15.85;8.65;;;22.00;99.90;;;;;;4916520;29;20032;-64
2024/01/30 07:57:34;;;;;;;16.15;7.97;;;22.00;99.90;;;;;;4916581;29;20044;-66
2024/01/30 08:00:01;;;;;;;16.35;8.00;;;22.00;99.90;;;;;;4916728;29;20028;-64
2024/01/30 08:02:27;;;;;;;12.68;7.28;;;22.00;99.90;;;;;;4915476;29;20119;-65
2024/01/30 08:04:52;;;;;;;13.25;7.35;;;22.00;99.90;;;;;;4916489;29;20486;-65
2024/01/30 08:07:19;;;;;;;15.02;7.88;;;22.00;99.90;;;;;;4916421;29;20028;-64
2024/01/30 08:09:45;;;;;;;16.38;8.32;;;22.00;99.90;;;;;;4916596;29;20024;-64
2024/01/30 08:12:11;;;;;;;13.45;8.02;;;22.00;99.90;;;;;;4916653;29;20027;-64
2024/01/30 08:14:37;;;;;;;12.02;7.53;;;22.00;99.90;;;;;;4916554;29;20426;-63
2024/01/30 08:17:03;;;;;;;11.52;7.10;;;22.00;99.90;;;;;;4916445;29;20080;-63
2024/01/30 08:19:29;;;;;;;10.65;6.88;;;22.00;99.90;;;;;;4915282;29;20032;-64
2024/01/30 08:21:55;;;;;;;14.90;7.97;;;22.00;99.90;;;;;;4916326;29;20443;-64
2024/01/30 08:24:21;;;;;;;11.52;6.53;;;22.00;99.90;;;;;;4916342;29;20024;-66
2024/01/30 08:26:47;;;;;;;13.10;6.95;;;22.00;99.90;;;;;;4916273;29;20021;-64
2024/01/30 08:29:12;;;;;;;14.32;8.07;;;22.00;99.90;;;;;;4916300;29;20440;-64
2024/01/30 08:31:38;;;;;;;11.23;7.47;;;22.00;99.90;;;;;;4916296;29;20031;-64
2024/01/30 08:34:04;;;;;;;13.23;7.50;;;22.00;99.90;;;;;;4915028;29;20032;-64
2024/01/30 08:36:30;;;;;;;10.75;6.70;;;21.90;99.90;;;;;;4916068;29;20064;-62
2024/01/30 08:38:55;;;;;;;15.98;7.82;;;21.90;99.90;;;;;;4914958;29;20055;-62
2024/01/30 08:41:21;;;;;;;13.35;7.00;;;22.00;99.90;;;;;;4916192;29;20036;-63
2024/01/30 08:43:47;;;;;;;13.45;7.93;;;22.00;99.90;;;;;;4916136;29;20051;-63
2024/01/30 08:46:13;;;;;;;12.02;7.35;;;22.00;99.90;;;;;;4916023;29;20028;-64
2024/01/30 08:48:38;;;;;;;13.85;7.68;;;22.00;99.90;;;;;;4915913;29;20103;-63
2024/01/30 08:51:08;;;;;;;13.40;8.05;;;22.00;99.90;;;;;;4915677;29;20024;-64
2024/01/30 08:53:34;;;;;;;13.73;7.00;;;21.90;99.90;;;;;;4915352;29;20020;-63
2024/01/30 08:56:00;;;;;;;12.38;6.85;;;22.00;99.90;;;;;;4915976;29;20059;-63
2024/01/30 08:58:26;;;;;;;11.18;7.07;;;21.90;99.90;;;;;;4915747;29;20020;-63
2024/01/30 09:00:52;;;;;;;11.10;7.10;;;21.90;99.90;;;;;;4915578;29;20142;-64
2024/01/30 09:03:19;;;;;;;13.63;7.40;;;22.00;99.90;;;;;;4914916;29;20501;-64
2024/01/30 09:05:44;;;;;;;13.90;7.05;;;22.00;99.90;;;;;;4914952;29;20020;-63
2024/01/30 09:08:10;;;;;;;10.50;7.03;;;22.00;99.90;;;;;;4915000;29;20103;-63
2024/01/30 09:10:37;;;;;;;11.52;7.05;;;22.00;99.90;;;;;;4913198;29;20020;-65
2024/01/30 09:13:03;;;;;;;10.38;6.60;;;22.00;99.90;;;;;;4913327;29;20052;-64
2024/01/30 09:15:29;;;;;;;9.95;6.88;;;21.90;99.90;;;;;;4914688;29;20067;-64
2024/01/30 09:17:54;;;;;;;10.23;6.30;;;21.90;99.90;;;;;;4914461;29;20028;-65
2024/01/30 09:20:22;;;;;;;10.43;6.88;;;22.00;99.90;;;;;;4914599;29;20039;-66
2024/01/30 09:22:49;;;;;;;9.98;6.35;;;21.90;99.90;;;;;;4913889;29;20031;-65
2024/01/30 09:25:15;;;;;;;10.27;6.57;;;21.90;99.90;;;;;;4913248;29;20068;-63
2024/01/30 09:27:41;;;;;;;11.60;6.57;;;22.00;99.90;;;;;;4914861;29;20032;-63
2024/01/30 09:30:07;;;;;;;9.98;6.13;;;21.90;99.90;;;;;;4914713;29;20469;-64
2024/01/30 09:32:33;;;;;;;10.85;6.20;;;22.00;99.90;;;;;;4897951;29;20123;-64
2024/01/30 09:34:59;;;;;;;12.88;6.68;;;22.00;99.90;;;;;;4897698;29;20128;-66
2024/01/30 09:37:24;;;;;;;13.73;6.60;;;21.90;99.90;;;;;;4914890;29;20028;-67
2024/01/30 09:39:50;;;;;;;11.95;6.38;;;22.00;99.90;;;;;;4914116;29;20053;-63
2024/01/30 09:42:36;;;;;;;10.02;6.40;;;21.90;99.90;;;;;;4897600;29;20148;-65
2024/01/30 09:45:03;;;;;;;12.48;6.57;;;21.90;99.90;;;;;;4914758;29;20040;-65
2024/01/30 09:47:49;;;;;;;10.88;6.40;;;21.90;99.90;;;;;;4897540;29;20028;-65
2024/01/30 09:50:16;;;;;;;10.23;6.38;;;21.90;99.90;;;;;;4914375;29;20039;-64
2024/01/30 09:52:44;;;;;;;8.63;5.28;;;22.00;99.90;;;;;;4914540;29;20032;-65
2024/01/30 09:55:10;;;;;;;13.05;5.95;;;21.90;99.90;;;;;;4914333;29;20028;-64
2024/01/30 09:57:36;;;;;;;11.95;6.50;;;21.90;99.90;;;;;;4914563;29;20035;-65
2024/01/30 10:00:04;;;;;;;10.88;6.45;;;21.90;99.90;;;;;;4914564;29;20485;-65
2024/01/30 10:02:31;;;;;;;14.15;6.28;;;22.00;99.90;;;;;;4867835;29;1396473;-65
2024/01/30 10:04:57;;;;;;;;;;;22.00;99.90;;;;;;4918754;29;20032;-65
2024/01/30 10:07:23;;;;;;;11.43;6.70;;;21.90;99.90;;;;;;4918625;29;20279;-63
2024/01/30 10:09:49;;;;;;;10.02;6.20;;;22.00;99.90;;;;;;4918732;29;20145;-64
2024/01/30 10:12:15;;;;;;;9.07;5.57;;;21.90;99.90;;;;;;4918620;29;20039;-65
2024/01/30 10:14:42;;;;;;;9.93;6.30;;;22.00;99.90;;;;;;4901462;29;20547;-64
2024/01/30 10:17:12;;;;;;;9.43;6.22;;;22.00;99.90;;;;;;4918534;29;20028;-65
2024/01/30 10:19:40;;;;;;;9.38;6.35;;;21.90;99.90;;;;;;4918433;29;20056;-67
2024/01/30 10:22:06;;;;;;;7.38;5.20;;;22.00;99.90;;;;;;4918667;29;20028;-64
2024/01/30 10:24:33;;;;;;;9.82;5.68;;;22.00;99.90;;;;;;4918366;29;20393;-65
2024/01/30 10:26:59;;;;;;;9.23;5.68;;;22.00;99.90;;;;;;4918321;29;20129;-66
2024/01/30 10:29:26;;;;;;;9.73;5.47;;;22.00;99.90;;;;;;4918278;29;20024;-68
2024/01/30 10:32:02;;;;;;;9.90;5.43;;;22.00;99.90;;;;;;4918299;29;20065;-61
2024/01/30 10:34:28;;;;;;;8.02;5.50;;;22.00;99.90;;;;;;4917119;29;20032;-63
2024/01/30 10:37:06;;;;;;;11.00;5.80;;;22.00;99.90;;;;;;4917918;29;20340;-62
2024/01/30 10:39:36;;;;;;;9.68;5.80;;;22.00;99.90;;;;;;4918055;29;20389;-62
2024/01/30 10:42:06;;;;;;;11.05;6.20;;;22.00;99.90;;;;;;4918139;29;20040;-63
2024/01/30 10:44:59;;;;;;;9.80;5.30;;;22.00;99.90;;;;;;4918015;29;20055;-62
2024/01/30 10:47:29;;;;;;;8.05;4.95;;;22.00;99.90;;;;;;4918133;29;20095;-62
2024/01/30 10:49:56;;;;;;;8.90;5.47;;;22.00;99.90;;;;;;4918033;29;20036;-61
2024/01/30 10:52:27;;;;;;;10.20;6.03;;;22.00;99.90;;;;;;4900878;29;20059;-64
2024/01/30 10:54:55;;;;;;;8.85;5.38;;;22.00;99.90;;;;;;4900723;29;20123;-65
2024/01/30 10:57:23;;;;;;;;;;;22.00;99.90;;;;;;4918150;29;20480;-64
2024/01/30 10:59:49;;;;;;;11.02;5.63;;;22.00;99.90;;;;;;4917681;29;19907;-65
2024/01/30 11:02:16;;;;;;;7.13;4.80;;;22.00;99.90;;;;;;4917625;29;20052;-64
2024/01/30 11:04:42;;;;;;;10.07;5.35;;;22.00;99.90;;;;;;4916486;29;20392;-64
2024/01/30 11:07:34;;;;;;;7.30;5.18;;;22.00;99.90;;;;;;4917794;29;20024;-64
2024/01/30 11:10:01;;;;;;;10.15;5.53;;;22.00;99.90;;;;;;4915615;29;20040;-65
2024/01/30 11:12:28;;;;;;;11.43;5.97;;;22.10;99.90;;;;;;4917559;29;20099;-65
2024/01/30 11:15:05;;;;;;;7.05;4.43;;;22.00;99.90;;;;;;4916665;29;20027;-62
2024/01/30 11:17:43;;;;;;;10.17;5.27;;;22.10;99.90;;;;;;4917452;29;20036;-62
2024/01/30 11:20:15;;;;;;;7.82;4.32;;;22.00;99.90;;;;;;4917612;29;20282;-62
2024/01/30 11:22:46;;;;;;;9.27;4.60;;;22.10;99.90;;;;;;4917205;29;20151;-62
2024/01/30 11:25:16;;;;;;;7.63;4.40;;;22.10;99.90;;;;;;4917317;29;20028;-62
2024/01/30 11:27:43;;;;;;;9.32;4.93;;;22.00;99.90;;;;;;4917282;29;20103;-61
2024/01/30 11:30:09;;;;;;;8.23;5.10;;;22.00;99.90;;;;;;4917431;29;20032;-62
2024/01/30 11:32:35;;;;;;;10.18;5.43;;;22.00;99.90;;;;;;4917178;29;20043;-62
2024/01/30 11:35:06;;;;;;;8.40;4.97;;;22.00;99.90;;;;;;4916838;29;20038;-62
2024/01/30 11:37:32;;;;;;;8.50;4.95;;;22.10;99.90;;;;;;4917057;29;20036;-67
2024/01/30 11:39:59;;;;;;;7.13;4.55;;;22.10;99.90;;;;;;4917045;29;20028;-67
2024/01/30 11:42:26;;;;;;;7.25;5.15;;;22.10;99.90;;;;;;4916832;29;20481;-63
2024/01/30 11:44:52;;;;;;;8.23;4.97;;;22.10;99.90;;;;;;4920089;29;20092;-62
2024/01/30 11:47:17;;;;;;;10.43;5.28;;;22.10;99.90;;;;;;4912664;29;20028;-65
2024/01/30 11:49:43;;;;;;;13.00;4.70;;;22.10;99.90;;;;;;4907569;29;20025;-66
2024/01/30 11:52:10;;;;;;;12.75;6.07;;;22.10;99.90;;;;;;4911494;29;20189;-62
2024/01/30 11:54:36;;;;;;;12.90;5.25;;;22.10;99.90;;;;;;4916802;29;20059;-61
2024/01/30 11:57:02;;;;;;;10.18;4.78;;;22.10;99.90;;;;;;4916740;29;20043;-65
2024/01/30 11:59:27;;;;;;;9.93;4.60;;;22.10;99.90;;;;;;4916235;29;20020;-62
2024/01/30 12:01:53;;;;;;;10.65;4.28;;;22.10;99.90;;;;;;4915873;29;20103;-66
2024/01/30 12:04:19;;;;;;;7.88;4.05;;;22.10;99.90;;;;;;4915879;29;20489;-63
2024/01/30 12:06:45;;;;;;;10.15;4.18;;;22.10;99.90;;;;;;4916372;29;20021;-66
2024/01/30 12:09:13;;;;;;;9.70;4.35;;;22.10;99.90;;;;;;4916158;29;20028;-62
2024/01/30 12:11:49;;;;;;;;;;;22.10;99.90;;;;;;4916652;29;20354;-62
2024/01/30 12:14:17;;;;;;;9.03;3.97;;;22.10;99.90;;;;;;4913793;29;20398;-63
2024/01/30 12:16:42;;;;;;;;;;;22.10;99.90;;;;;;4916189;29;20063;-65
2024/01/30 12:19:08;;;;;;;10.93;4.10;;;22.10;99.90;;;;;;4916142;29;19918;-63
2024/01/30 12:21:35;;;;;;;10.10;4.47;;;22.10;99.90;;;;;;4916278;29;20098;-65
2024/01/30 12:24:01;;;;;;;15.30;4.53;;;22.10;99.90;;;;;;4915064;29;20472;-64
2024/01/30 12:26:28;;;;;;;9.57;4.38;;;22.10;99.90;;;;;;4918654;29;20046;-67
2024/01/30 12:29:01;;;;;;;12.50;4.85;;;22.10;99.90;;;;;;4898918;29;20048;-67
2024/01/30 12:31:32;;;;;;;7.07;4.28;;;22.10;99.90;;;;;;4915987;29;20028;-61